Etusivu
METAR-TAF:

METAR-TAF

Lentoasemat :

Middleton Field

Evergreen, Alabama, Yhdysvallat

Leveyspiiri: 31-25-08N, Pituuspiiri: 087-02-53W, korkeus merenpinnasta: 78 m

Tämänhetkinen sää

Tämä raportti tehtiin 22 minuuttia sitten, kello 14.04 UTC
Tuuli 7 kn pohjoisesta
Lämpötila 19°C
Kosteus 83%
Ilmanpaine 1006 hPa
Näkyvyys: 16.1 km
Pilvistä 600 ft:n korkeudessa

METAR: KGZH 191404Z AUTO 01007KT 10SM OVC006 19/16 A2972 RMK AO2 T01890161

Aika: 09:26 (14:26 UTC)


TAF: puuttuu

Säähavainnot ja -ennusteet yli 4000 lentoasemalta (METAR- ja TAF-raportit).

Käytössä olevat sääasemat on merkitty karttaan keltaisilla ja punaisilla pisteillä.

Aseta hiiri pisteen päälle nähdäksesi sääaseman nimen.

Klikkaa sitten nähdäksesi säähavainnot ja -ennusteet.

Kartan vaihtaminen: klikkaa mustalla rastilla varustettuja vihreitä pisteitä, niin voit zoomata sisään; viivalla varustettua vihreää pistettä, niin voit zoomata ulos tai vihreitä nuolia, niin pääset viereisille kartoille.


METAR-TAF: